createdAt,value
2019-03-15T00:00:38.531Z,999.90
2019-03-15T00:01:38.520Z,999.90
2019-03-15T00:02:38.515Z,999.95
2019-03-15T00:03:38.540Z,999.93
2019-03-15T00:04:39.996Z,999.97
2019-03-15T00:05:38.480Z,999.98
2019-03-15T00:06:38.470Z,999.97
2019-03-15T00:07:38.457Z,999.95
2019-03-15T00:08:38.489Z,999.86
2019-03-15T00:09:38.433Z,999.90
2019-03-15T00:10:39.220Z,1000.03
2019-03-15T00:11:38.415Z,999.80
2019-03-15T00:12:38.401Z,999.83
2019-03-15T00:13:38.613Z,999.85
2019-03-15T00:14:38.380Z,999.94
2019-03-15T00:15:38.370Z,999.93
2019-03-15T00:16:38.404Z,999.98
2019-03-15T00:17:38.350Z,999.95
2019-03-15T00:18:38.335Z,999.95
2019-03-15T00:19:38.327Z,1000.00
2019-03-15T00:20:38.317Z,999.93
2019-03-15T00:21:38.304Z,999.92
2019-03-15T00:22:38.373Z,1000.01
2019-03-15T00:23:38.284Z,999.98
2019-03-15T00:24:38.270Z,999.89
2019-03-15T00:25:38.263Z,999.98
2019-03-15T00:26:38.255Z,999.99
2019-03-15T00:27:38.238Z,999.96
2019-03-15T00:28:38.268Z,999.97
2019-03-15T00:29:38.218Z,1000.05
2019-03-15T00:30:38.210Z,1000.02
2019-03-15T00:31:38.199Z,1000.08
2019-03-15T00:32:38.227Z,1000.13
2019-03-15T00:33:38.175Z,1000.03
2019-03-15T00:34:38.203Z,1000.02
2019-03-15T00:35:38.154Z,1000.01
2019-03-15T00:36:38.185Z,999.96
2019-03-15T00:37:38.132Z,1000.02
2019-03-15T00:38:38.121Z,1000.11
2019-03-15T00:39:38.110Z,1000.06
2019-03-15T00:40:38.137Z,1000.16
2019-03-15T00:41:38.087Z,999.99
2019-03-15T00:42:38.077Z,999.98
2019-03-15T00:43:38.067Z,1000.03
2019-03-15T00:44:38.055Z,999.97
2019-03-15T00:45:38.052Z,999.95
2019-03-15T00:46:38.072Z,999.89
2019-03-15T00:47:38.025Z,999.81
2019-03-15T00:48:38.019Z,999.86
2019-03-15T00:49:38.040Z,999.86
2019-03-15T00:50:38.032Z,999.87
2019-03-15T00:51:38.022Z,999.88
2019-03-15T00:52:37.976Z,999.91
2019-03-15T00:53:37.963Z,999.91
2019-03-15T00:54:37.945Z,999.93
2019-03-15T00:55:37.941Z,999.97
2019-03-15T00:56:37.928Z,1000.01
2019-03-15T00:57:37.957Z,1000.02
2019-03-15T00:58:37.904Z,1000.01
2019-03-15T00:59:37.892Z,1000.03
2019-03-15T01:00:37.886Z,999.97
2019-03-15T01:01:37.873Z,1000.03
2019-03-15T01:02:37.900Z,1000.07
2019-03-15T01:03:37.851Z,1000.09
2019-03-15T01:04:37.841Z,1000.06
2019-03-15T01:05:37.842Z,1000.17
2019-03-15T01:06:37.819Z,1000.04
2019-03-15T01:07:37.810Z,1000.07
2019-03-15T01:08:37.840Z,1000.07
2019-03-15T01:09:37.793Z,1000.08
2019-03-15T01:10:37.775Z,1000.06
2019-03-15T01:11:37.763Z,1000.06
2019-03-15T01:12:37.752Z,1000.13
2019-03-15T01:13:37.744Z,1000.10
2019-03-15T01:14:37.773Z,1000.17
2019-03-15T01:15:37.723Z,1000.11
2019-03-15T01:16:37.751Z,1000.12
2019-03-15T01:17:37.739Z,1000.14
2019-03-15T01:18:37.696Z,1000.17
2019-03-15T01:19:37.677Z,1000.13
2019-03-15T01:20:37.664Z,1000.21
2019-03-15T01:21:37.694Z,1000.24
2019-03-15T01:22:37.651Z,1000.17
2019-03-15T01:23:37.633Z,1000.18
2019-03-15T01:24:37.673Z,1000.22
2019-03-15T01:25:37.614Z,1000.25
2019-03-15T01:26:37.603Z,1000.19
2019-03-15T01:27:37.643Z,1000.21
2019-03-15T01:28:37.579Z,1000.25
2019-03-15T01:29:37.570Z,1000.26
2019-03-15T01:30:37.570Z,1000.35
2019-03-15T01:31:37.552Z,1000.27
2019-03-15T01:32:37.534Z,1000.22
2019-03-15T01:33:37.567Z,1000.26
2019-03-15T01:34:37.516Z,1000.26
2019-03-15T01:35:37.545Z,1000.33
2019-03-15T01:36:37.498Z,1000.31
2019-03-15T01:37:37.484Z,1000.26
2019-03-15T01:38:37.472Z,1000.30
2019-03-15T01:39:37.461Z,1000.23
2019-03-15T01:40:37.447Z,1000.25
2019-03-15T01:41:37.480Z,1000.25
2019-03-15T01:42:37.428Z,1000.25
2019-03-15T01:43:38.470Z,1000.26
2019-03-15T01:44:37.411Z,1000.19
2019-03-15T01:45:37.441Z,1000.21
2019-03-15T01:46:37.385Z,1000.20
2019-03-15T01:47:37.375Z,1000.27
2019-03-15T01:48:37.404Z,1000.32
2019-03-15T01:49:37.354Z,1000.26
2019-03-15T01:50:37.339Z,1000.30
2019-03-15T01:51:37.331Z,1000.29
2019-03-15T01:52:37.319Z,1000.28
2019-03-15T01:53:37.353Z,1000.28
2019-03-15T01:54:37.339Z,1000.28
2019-03-15T01:55:37.286Z,1000.21
2019-03-15T01:56:37.374Z,1000.20
2019-03-15T01:57:37.328Z,1000.25
2019-03-15T01:58:37.254Z,1000.17
2019-03-15T01:59:37.283Z,1000.21
2019-03-15T02:00:37.239Z,1000.19
2019-03-15T02:01:37.223Z,1000.22
2019-03-15T02:02:37.209Z,1000.27
2019-03-15T02:03:37.202Z,1000.17
2019-03-15T02:04:37.238Z,1000.11
2019-03-15T02:05:37.184Z,1000.17
2019-03-15T02:06:37.168Z,1000.23
2019-03-15T02:07:37.158Z,1000.21
2019-03-15T02:08:37.145Z,1000.19
2019-03-15T02:09:37.178Z,1000.15
2019-03-15T02:10:37.580Z,1000.15
2019-03-15T02:11:37.116Z,1000.15
2019-03-15T02:12:37.136Z,1000.18
2019-03-15T02:13:37.096Z,1000.11
2019-03-15T02:14:37.125Z,1000.06
2019-03-15T02:15:37.070Z,1000.11
2019-03-15T02:16:37.059Z,1000.05
2019-03-15T02:17:37.053Z,1000.04
2019-03-15T02:18:37.041Z,1000.11
2019-03-15T02:19:37.026Z,1000.08
2019-03-15T02:20:37.059Z,1000.08
2019-03-15T02:21:37.024Z,1000.12
2019-03-15T02:22:36.995Z,1000.10
2019-03-15T02:23:37.025Z,1000.15
2019-03-15T02:24:36.971Z,1000.08
2019-03-15T02:25:37.006Z,1000.02
2019-03-15T02:26:36.952Z,1000.05
2019-03-15T02:27:36.983Z,1000.09
2019-03-15T02:28:36.928Z,1000.10
2019-03-15T02:29:36.920Z,1000.13
2019-03-15T02:30:36.908Z,1000.13
2019-03-15T02:31:36.950Z,1000.11
2019-03-15T02:32:36.890Z,1000.14
2019-03-15T02:33:36.875Z,1000.19
2019-03-15T02:34:36.871Z,1000.16
2019-03-15T02:35:36.857Z,1000.18
2019-03-15T02:36:36.854Z,1000.15
2019-03-15T02:37:36.885Z,1000.15
2019-03-15T02:38:36.827Z,1000.10
2019-03-15T02:39:36.813Z,1000.08
2019-03-15T02:40:36.841Z,1000.10
2019-03-15T02:41:36.788Z,1000.10
2019-03-15T02:42:36.780Z,1000.15
2019-03-15T02:43:36.766Z,1000.17
2019-03-15T02:44:36.757Z,1000.15
2019-03-15T02:45:36.748Z,1000.15
2019-03-15T02:46:36.787Z,1000.15
2019-03-15T02:47:36.724Z,1000.14
2019-03-15T02:48:36.712Z,1000.19
2019-03-15T02:49:36.744Z,1000.18
2019-03-15T02:50:36.692Z,1000.14
2019-03-15T02:51:36.682Z,1000.09
2019-03-15T02:52:36.672Z,1000.05
2019-03-15T02:53:36.703Z,1000.06
2019-03-15T02:54:36.654Z,1000.07
2019-03-15T02:55:36.680Z,1000.07
2019-03-15T02:56:36.631Z,1000.04
2019-03-15T02:57:36.617Z,1000.06
2019-03-15T02:58:36.619Z,1000.10
2019-03-15T02:59:36.596Z,1000.10
2019-03-15T03:00:36.581Z,1000.10
2019-03-15T03:01:36.614Z,1000.11
2019-03-15T03:02:36.564Z,1000.10
2019-03-15T03:03:36.562Z,1000.07
2019-03-15T03:04:36.536Z,1000.05
2019-03-15T03:05:36.568Z,1000.04
2019-03-15T03:06:36.521Z,1000.06
2019-03-15T03:07:36.504Z,1000.04
2019-03-15T03:08:36.494Z,1000.03
2019-03-15T03:09:36.523Z,1000.02
2019-03-15T03:10:36.472Z,1000.04
2019-03-15T03:11:36.461Z,1000.00
2019-03-15T03:12:36.504Z,999.99
2019-03-15T03:13:37.241Z,1000.00
2019-03-15T03:14:36.431Z,999.98
2019-03-15T03:15:36.418Z,999.98
2019-03-15T03:16:36.414Z,999.95
2019-03-15T03:17:36.399Z,999.94
2019-03-15T03:18:36.447Z,999.98
2019-03-15T03:19:36.378Z,999.95
2019-03-15T03:20:36.398Z,999.97
2019-03-15T03:21:36.356Z,999.95
2019-03-15T03:22:36.671Z,999.94
2019-03-15T03:23:36.334Z,999.92
2019-03-15T03:24:36.323Z,999.88
2019-03-15T03:25:36.316Z,999.89
2019-03-15T03:26:36.304Z,999.90
2019-03-15T03:27:36.292Z,999.90
2019-03-15T03:28:36.326Z,999.86
2019-03-15T03:29:36.270Z,999.88
2019-03-15T03:30:36.259Z,999.87
2019-03-15T03:31:36.277Z,999.89
2019-03-15T03:32:36.245Z,999.85
2019-03-15T03:33:36.226Z,999.89
2019-03-15T03:34:36.279Z,999.87
2019-03-15T03:35:36.207Z,999.91
2019-03-15T03:36:36.195Z,999.94
2019-03-15T03:37:36.227Z,999.94
2019-03-15T03:38:36.169Z,999.95
2019-03-15T03:39:36.166Z,999.92
2019-03-15T03:40:36.231Z,999.89
2019-03-15T03:41:36.180Z,999.90
2019-03-15T03:42:36.133Z,999.85
2019-03-15T03:43:36.118Z,999.86
2019-03-15T03:44:36.132Z,999.83
2019-03-15T03:45:36.098Z,999.81
2019-03-15T03:46:36.094Z,999.81
2019-03-15T03:47:36.133Z,999.84
2019-03-15T03:48:36.080Z,999.86
2019-03-15T03:49:36.057Z,999.78
2019-03-15T03:50:36.043Z,999.72
2019-03-15T03:51:36.074Z,999.68
2019-03-15T03:52:36.050Z,999.67
2019-03-15T03:53:36.010Z,999.64
2019-03-15T03:54:36.000Z,999.65
2019-03-15T03:55:35.991Z,999.61
2019-03-15T03:56:36.017Z,999.56
2019-03-15T03:57:36.525Z,999.60
2019-03-15T03:58:35.951Z,999.55
2019-03-15T03:59:35.943Z,999.55
2019-03-15T04:00:35.971Z,999.63
2019-03-15T04:01:35.964Z,999.55
2019-03-15T04:02:35.909Z,999.57
2019-03-15T04:03:35.900Z,999.59
2019-03-15T04:04:35.891Z,999.59
2019-03-15T04:05:35.883Z,999.59
2019-03-15T04:06:35.924Z,999.54
2019-03-15T04:07:35.865Z,999.51
2019-03-15T04:08:35.903Z,999.50
2019-03-15T04:09:35.834Z,999.48
2019-03-15T04:10:35.824Z,999.45
2019-03-15T04:11:35.825Z,999.48
2019-03-15T04:12:35.974Z,999.46
2019-03-15T04:13:35.789Z,999.46
2019-03-15T04:14:35.779Z,999.45
2019-03-15T04:15:35.808Z,999.47
2019-03-15T04:16:35.756Z,999.44
2019-03-15T04:17:35.749Z,999.41
2019-03-15T04:18:35.740Z,999.41
2019-03-15T04:19:35.727Z,999.43
2019-03-15T04:20:35.714Z,999.39
2019-03-15T04:21:35.746Z,999.37
2019-03-15T04:22:35.697Z,999.34
2019-03-15T04:23:38.287Z,999.32
2019-03-15T04:24:35.672Z,999.34
2019-03-15T04:25:35.701Z,999.33
2019-03-15T04:26:35.655Z,999.31
2019-03-15T04:27:35.642Z,999.31
2019-03-15T04:28:35.632Z,999.31
2019-03-15T04:29:35.616Z,999.36
2019-03-15T04:30:35.646Z,999.34
2019-03-15T04:31:35.599Z,999.34
2019-03-15T04:32:35.622Z,999.37
2019-03-15T04:33:35.570Z,999.38
2019-03-15T04:34:35.560Z,999.35
2019-03-15T04:35:35.555Z,999.41
2019-03-15T04:36:35.541Z,999.43
2019-03-15T04:37:35.568Z,999.39
2019-03-15T04:38:35.520Z,999.42
2019-03-15T04:39:35.547Z,999.38
2019-03-15T04:40:35.497Z,999.38
2019-03-15T04:41:35.486Z,999.42
2019-03-15T04:42:35.495Z,999.42
2019-03-15T04:43:35.533Z,999.40
2019-03-15T04:44:35.498Z,999.43
2019-03-15T04:45:35.489Z,999.43
2019-03-15T04:46:35.436Z,999.41
2019-03-15T04:47:35.463Z,999.47
2019-03-15T04:48:35.408Z,999.46
2019-03-15T04:49:35.398Z,999.44
2019-03-15T04:50:35.387Z,999.42
2019-03-15T04:51:35.382Z,999.41
2019-03-15T04:52:35.365Z,999.47
2019-03-15T04:53:35.395Z,999.40
2019-03-15T04:54:35.344Z,999.43
2019-03-15T04:55:35.333Z,999.44
2019-03-15T04:56:35.322Z,999.44
2019-03-15T04:57:35.316Z,999.41
2019-03-15T04:58:35.301Z,999.41
2019-03-15T04:59:35.334Z,999.41
2019-03-15T05:00:35.284Z,999.39
2019-03-15T05:01:35.265Z,999.44
2019-03-15T05:02:35.257Z,999.45
2019-03-15T05:03:35.285Z,999.49
2019-03-15T05:04:35.235Z,999.47
2019-03-15T05:05:35.224Z,999.51
2019-03-15T05:06:35.214Z,999.49
2019-03-15T05:07:35.203Z,999.49
2019-03-15T05:08:35.191Z,999.47
2019-03-15T05:09:35.220Z,999.48
2019-03-15T05:10:35.212Z,999.48
2019-03-15T05:11:35.158Z,999.55
2019-03-15T05:12:35.147Z,999.49
2019-03-15T05:13:35.139Z,999.51
2019-03-15T05:14:35.131Z,999.51
2019-03-15T05:15:35.115Z,999.49
2019-03-15T05:16:35.147Z,999.45
2019-03-15T05:17:35.095Z,999.48
2019-03-15T05:18:35.082Z,999.48
2019-03-15T05:19:35.076Z,999.43
2019-03-15T05:20:35.059Z,999.46
2019-03-15T05:21:35.049Z,999.44
2019-03-15T05:22:35.082Z,999.41
2019-03-15T05:23:35.043Z,999.38
2019-03-15T05:24:35.018Z,999.41
2019-03-15T05:25:35.006Z,999.39
2019-03-15T05:26:35.003Z,999.35
2019-03-15T05:27:35.028Z,999.40
2019-03-15T05:28:34.976Z,999.38
2019-03-15T05:29:34.966Z,999.40
2019-03-15T05:30:34.958Z,999.36
2019-03-15T05:31:34.943Z,999.34
2019-03-15T05:32:34.931Z,999.37
2019-03-15T05:33:35.072Z,999.35
2019-03-15T05:34:34.909Z,999.28
2019-03-15T05:35:34.902Z,999.29
2019-03-15T05:36:34.937Z,999.30
2019-03-15T05:37:34.882Z,999.24
2019-03-15T05:38:35.337Z,999.30
2019-03-15T05:39:34.861Z,999.20
2019-03-15T05:40:34.841Z,999.23
2019-03-15T05:41:34.880Z,999.22
2019-03-15T05:42:34.820Z,999.22
2019-03-15T05:43:34.813Z,999.21
2019-03-15T05:44:34.856Z,999.20
2019-03-15T05:45:34.798Z,999.16
2019-03-15T05:46:34.780Z,999.17
2019-03-15T05:47:34.769Z,999.14
2019-03-15T05:48:34.754Z,999.12
2019-03-15T05:49:34.745Z,999.14
2019-03-15T05:50:34.776Z,999.14
2019-03-15T05:51:34.762Z,999.05
2019-03-15T05:52:34.712Z,999.07
2019-03-15T05:53:34.701Z,999.05
2019-03-15T05:54:34.690Z,999.04
2019-03-15T05:55:34.692Z,999.07
2019-03-15T05:56:34.672Z,999.02
2019-03-15T05:57:34.700Z,999.03
2019-03-15T05:58:34.646Z,998.99
2019-03-15T05:59:34.656Z,998.94
2019-03-15T06:00:34.667Z,999.00
2019-03-15T06:01:34.657Z,998.98
2019-03-15T06:02:42.275Z,998.98
2019-03-15T06:03:47.481Z,998.97
2019-03-15T06:04:35.651Z,999.03
2019-03-15T06:05:34.578Z,998.94
2019-03-15T06:06:34.694Z,998.92
2019-03-15T06:07:34.571Z,998.81
2019-03-15T06:08:34.594Z,998.90
2019-03-15T06:09:34.546Z,998.89
2019-03-15T06:10:34.534Z,998.86
2019-03-15T06:11:34.512Z,998.87
2019-03-15T06:12:34.509Z,998.83
2019-03-15T06:13:34.509Z,998.84
2019-03-15T06:14:34.522Z,998.84
2019-03-15T06:15:34.479Z,998.82
2019-03-15T06:16:34.460Z,998.81
2019-03-15T06:17:34.474Z,998.83
2019-03-15T06:18:34.444Z,998.82
2019-03-15T06:19:34.477Z,998.81
2019-03-15T06:20:34.451Z,998.78
2019-03-15T06:21:34.421Z,998.79
2019-03-15T06:22:34.418Z,998.81
2019-03-15T06:23:34.390Z,998.82
2019-03-15T06:24:34.415Z,998.76
2019-03-15T06:25:34.398Z,998.74
2019-03-15T06:26:34.360Z,998.73
2019-03-15T06:27:34.384Z,998.69
2019-03-15T06:28:34.353Z,998.68
2019-03-15T06:29:34.360Z,998.63
2019-03-15T06:30:34.305Z,998.67
2019-03-15T06:31:34.305Z,998.68
2019-03-15T06:32:34.310Z,998.64
2019-03-15T06:33:34.293Z,998.63
2019-03-15T06:34:34.304Z,998.62
2019-03-15T06:35:34.253Z,998.53
2019-03-15T06:36:34.263Z,998.44
2019-03-15T06:37:34.306Z,998.40
2019-03-15T06:38:34.230Z,998.45
2019-03-15T06:39:34.218Z,998.47
2019-03-15T06:40:34.218Z,998.41
2019-03-15T06:41:34.225Z,998.39
2019-03-15T06:42:34.187Z,998.41
2019-03-15T06:43:34.174Z,998.37
2019-03-15T06:44:37.256Z,998.36
2019-03-15T06:45:34.189Z,998.36
2019-03-15T06:46:34.142Z,998.31
2019-03-15T06:47:34.140Z,998.31
2019-03-15T06:48:34.105Z,998.29
2019-03-15T06:49:34.128Z,998.32
2019-03-15T06:50:34.086Z,998.31
2019-03-15T06:51:34.121Z,998.30
2019-03-15T06:52:34.111Z,998.27
2019-03-15T06:53:34.080Z,998.28
2019-03-15T06:54:34.047Z,998.25
2019-03-15T06:55:34.037Z,998.26
2019-03-15T06:56:34.027Z,998.22
2019-03-15T06:57:34.070Z,998.23
2019-03-15T06:58:34.031Z,998.28
2019-03-15T06:59:33.995Z,998.21
2019-03-15T07:00:34.019Z,998.21
2019-03-15T07:01:34.008Z,998.12
2019-03-15T07:02:34.071Z,998.14
2019-03-15T07:03:33.959Z,998.12
2019-03-15T07:04:33.984Z,998.14
2019-03-15T07:05:33.990Z,998.14
2019-03-15T07:06:33.922Z,998.05
2019-03-15T07:07:34.012Z,997.99
2019-03-15T07:08:34.009Z,997.93
2019-03-15T07:09:33.897Z,997.92
2019-03-15T07:10:33.913Z,997.88
2019-03-15T07:11:33.915Z,997.91
2019-03-15T07:12:33.854Z,997.85
2019-03-15T07:13:33.880Z,997.85
2019-03-15T07:14:33.837Z,997.83
2019-03-15T07:15:33.822Z,997.83
2019-03-15T07:16:33.847Z,997.75
2019-03-15T07:17:33.795Z,997.82
2019-03-15T07:18:33.834Z,997.76
2019-03-15T07:19:33.855Z,997.78
2019-03-15T07:20:33.769Z,997.82
2019-03-15T07:21:36.653Z,997.78
2019-03-15T07:22:33.741Z,997.80
2019-03-15T07:23:33.782Z,997.77
2019-03-15T07:24:33.718Z,997.78
2019-03-15T07:25:33.701Z,997.80
2019-03-15T07:26:33.707Z,997.74
2019-03-15T07:27:33.682Z,997.67
2019-03-15T07:28:33.717Z,997.70
2019-03-15T07:29:33.675Z,997.68
2019-03-15T07:30:33.687Z,997.69
2019-03-15T07:31:33.637Z,997.68
2019-03-15T07:32:33.630Z,997.64
2019-03-15T07:33:33.642Z,997.67
2019-03-15T07:34:33.676Z,997.63
2019-03-15T07:35:33.734Z,997.66
2019-03-15T07:36:37.019Z,997.62
2019-03-15T07:37:33.625Z,997.61
2019-03-15T07:38:33.582Z,997.64
2019-03-15T07:39:33.558Z,997.58
2019-03-15T07:40:33.547Z,997.60
2019-03-15T07:41:33.532Z,997.54
2019-03-15T07:42:33.562Z,997.56
2019-03-15T07:43:33.577Z,997.54
2019-03-15T07:44:33.550Z,997.51
2019-03-15T07:45:33.486Z,997.49
2019-03-15T07:46:33.505Z,997.52
2019-03-15T07:47:34.473Z,997.49
2019-03-15T07:48:33.462Z,997.41
2019-03-15T07:49:33.445Z,997.37
2019-03-15T07:50:33.452Z,997.37
2019-03-15T07:51:33.471Z,997.36
2019-03-15T07:52:33.404Z,997.35
2019-03-15T07:53:35.359Z,997.42
2019-03-15T07:54:38.060Z,997.41
2019-03-15T07:55:34.383Z,997.34
2019-03-15T07:56:33.440Z,997.39
2019-03-15T07:57:33.395Z,997.43
2019-03-15T07:58:33.681Z,997.35
2019-03-15T07:59:33.329Z,997.39
2019-03-15T08:00:33.326Z,997.37
2019-03-15T08:01:33.317Z,997.37
2019-03-15T08:02:33.347Z,997.38
2019-03-15T08:03:33.341Z,997.39
2019-03-15T08:04:35.879Z,997.38
2019-03-15T08:05:33.313Z,997.37
2019-03-15T08:06:35.064Z,997.35
2019-03-15T08:07:36.589Z,997.37
2019-03-15T08:08:34.368Z,997.26
2019-03-15T08:09:33.596Z,997.25
2019-03-15T08:10:33.259Z,997.26
2019-03-15T08:11:33.196Z,997.23
2019-03-15T08:12:33.193Z,997.24
2019-03-15T08:13:33.303Z,997.24
2019-03-15T08:14:33.213Z,997.21
2019-03-15T08:15:33.152Z,997.24
2019-03-15T08:16:34.553Z,997.27
2019-03-15T08:17:33.201Z,997.19
2019-03-15T08:18:33.142Z,997.23
2019-03-15T08:19:33.121Z,997.18
2019-03-15T08:20:33.104Z,997.15
2019-03-15T08:21:33.098Z,997.17
2019-03-15T08:22:33.082Z,997.23
2019-03-15T08:23:33.136Z,997.17
2019-03-15T08:24:35.383Z,997.17
2019-03-15T08:25:33.052Z,997.15
2019-03-15T08:26:33.038Z,997.14
2019-03-15T08:27:33.061Z,997.16
2019-03-15T08:28:33.020Z,997.17
2019-03-15T08:29:33.069Z,997.20
2019-03-15T08:30:33.005Z,997.21
2019-03-15T08:31:33.086Z,997.15
2019-03-15T08:32:32.961Z,997.22
2019-03-15T08:33:33.045Z,997.26
2019-03-15T08:34:32.984Z,997.22
2019-03-15T08:35:33.108Z,997.24
2019-03-15T08:36:33.016Z,997.20
2019-03-15T08:37:32.921Z,997.23
2019-03-15T08:38:46.200Z,997.22
2019-03-15T08:39:33.886Z,997.16
2019-03-15T08:40:32.918Z,997.24
2019-03-15T08:41:32.919Z,997.19
2019-03-15T08:42:34.577Z,997.24
2019-03-15T08:43:33.434Z,997.15
2019-03-15T08:44:32.884Z,997.19
2019-03-15T08:45:32.819Z,997.13
2019-03-15T08:46:32.812Z,997.21
2019-03-15T08:47:32.797Z,997.22
2019-03-15T08:48:32.901Z,997.19
2019-03-15T08:49:32.781Z,997.13
2019-03-15T08:50:32.821Z,997.09
2019-03-15T08:51:32.751Z,997.19
2019-03-15T08:52:32.734Z,997.14
2019-03-15T08:53:32.760Z,997.06
2019-03-15T08:54:32.783Z,997.07
2019-03-15T08:55:32.754Z,997.10
2019-03-15T08:56:32.785Z,997.07
2019-03-15T08:57:32.690Z,997.14
2019-03-15T08:58:32.765Z,997.04
2019-03-15T08:59:32.720Z,997.06
2019-03-15T09:00:32.698Z,997.04
2019-03-15T09:01:32.665Z,997.06
2019-03-15T09:02:32.661Z,997.03
2019-03-15T09:03:34.369Z,997.08
2019-03-15T09:04:32.648Z,997.12
2019-03-15T09:05:32.606Z,997.07
2019-03-15T09:06:32.625Z,997.15
2019-03-15T09:07:32.575Z,997.08
2019-03-15T09:08:32.601Z,997.17
2019-03-15T09:09:35.843Z,997.20
2019-03-15T09:10:32.633Z,997.20
2019-03-15T09:11:32.540Z,997.19
2019-03-15T09:12:32.607Z,997.14
2019-03-15T09:13:32.508Z,997.16
2019-03-15T09:14:32.492Z,997.19
2019-03-15T09:15:32.516Z,997.15
2019-03-15T09:16:32.486Z,997.22
2019-03-15T09:17:32.461Z,997.23
2019-03-15T09:18:32.494Z,997.20
2019-03-15T09:19:32.502Z,997.27
2019-03-15T09:20:32.437Z,997.33
2019-03-15T09:21:32.471Z,997.25
2019-03-15T09:22:32.410Z,997.24
2019-03-15T09:23:32.476Z,997.23
2019-03-15T09:24:32.397Z,997.18
2019-03-15T09:25:32.409Z,997.21
2019-03-15T09:26:32.365Z,997.29
2019-03-15T09:27:32.382Z,997.25
2019-03-15T09:28:32.433Z,997.23
2019-03-15T09:29:32.338Z,997.25
2019-03-15T09:30:32.363Z,997.28
2019-03-15T09:31:46.617Z,997.29
2019-03-15T09:32:33.303Z,997.31
2019-03-15T09:33:32.389Z,997.33
2019-03-15T09:34:32.329Z,997.34
2019-03-15T09:35:32.281Z,997.32
2019-03-15T09:36:33.964Z,997.31
2019-03-15T09:37:32.273Z,997.34
2019-03-15T09:38:32.285Z,997.36
2019-03-15T09:39:32.262Z,997.40
2019-03-15T09:40:32.211Z,997.25
2019-03-15T09:41:39.474Z,997.28
2019-03-15T09:42:33.178Z,997.32
2019-03-15T09:43:32.188Z,997.28
2019-03-15T09:44:32.157Z,997.24
2019-03-15T09:45:32.200Z,997.31
2019-03-15T09:46:32.196Z,997.32
2019-03-15T09:47:32.135Z,997.26
2019-03-15T09:48:32.115Z,997.27
2019-03-15T09:49:32.107Z,997.27
2019-03-15T09:50:40.117Z,997.36
2019-03-15T09:51:33.142Z,997.30
2019-03-15T09:52:32.116Z,997.32
2019-03-15T09:53:32.062Z,997.32
2019-03-15T09:54:32.052Z,997.25
2019-03-15T09:55:33.491Z,997.33
2019-03-15T09:56:32.027Z,997.32
2019-03-15T09:57:32.014Z,997.32
2019-03-15T09:58:32.047Z,997.29
2019-03-15T09:59:31.991Z,997.27
2019-03-15T10:00:31.978Z,997.26
2019-03-15T10:01:35.132Z,997.27
2019-03-15T10:02:31.968Z,997.26
2019-03-15T10:03:31.939Z,997.24
2019-03-15T10:04:32.010Z,997.22
2019-03-15T10:05:31.917Z,997.18
2019-03-15T10:06:31.996Z,997.17
2019-03-15T10:07:38.431Z,997.18
2019-03-15T10:08:32.894Z,997.18
2019-03-15T10:09:44.888Z,997.15
2019-03-15T10:10:32.884Z,997.19
2019-03-15T10:11:31.873Z,997.27
2019-03-15T10:12:31.903Z,997.16
2019-03-15T10:13:31.838Z,997.18
2019-03-15T10:14:31.826Z,997.23
2019-03-15T10:15:31.910Z,997.17
2019-03-15T10:16:31.817Z,997.23
2019-03-15T10:17:31.828Z,997.28
2019-03-15T10:18:31.849Z,997.17
2019-03-15T10:19:31.766Z,997.14
2019-03-15T10:20:31.811Z,997.24
2019-03-15T10:21:31.756Z,997.13
2019-03-15T10:22:31.742Z,997.18
2019-03-15T10:23:31.724Z,997.18
2019-03-15T10:24:31.709Z,997.21
2019-03-15T10:25:45.631Z,997.25
2019-03-15T10:26:32.755Z,997.19
2019-03-15T10:27:31.712Z,997.24
2019-03-15T10:28:31.673Z,997.21
2019-03-15T10:29:31.726Z,997.24
2019-03-15T10:30:31.717Z,997.32
2019-03-15T10:31:31.636Z,997.28
2019-03-15T10:32:31.652Z,997.38
2019-03-15T10:33:31.620Z,997.47
2019-03-15T10:34:31.609Z,997.25
2019-03-15T10:35:31.615Z,997.35
2019-03-15T10:36:34.480Z,997.27
2019-03-15T10:37:31.563Z,997.29
2019-03-15T10:38:31.611Z,997.34
2019-03-15T10:39:31.558Z,997.36
2019-03-15T10:40:31.550Z,997.40
2019-03-15T10:41:31.544Z,997.26
2019-03-15T10:42:31.634Z,997.48
2019-03-15T10:43:31.516Z,997.40
2019-03-15T10:44:31.501Z,997.49
2019-03-15T10:45:31.488Z,997.55
2019-03-15T10:46:31.476Z,997.38
2019-03-15T10:47:31.496Z,997.57
2019-03-15T10:48:31.515Z,997.37
2019-03-15T10:49:31.469Z,997.41
2019-03-15T10:50:31.442Z,997.56
2019-03-15T10:51:31.424Z,997.34
2019-03-15T10:52:31.413Z,997.55
2019-03-15T10:53:31.445Z,997.49
2019-03-15T10:54:31.467Z,997.58
2019-03-15T10:55:31.380Z,997.59
2019-03-15T10:56:31.357Z,997.64
2019-03-15T10:57:31.345Z,997.50
2019-03-15T10:58:31.334Z,997.61
2019-03-15T10:59:31.360Z,997.58
2019-03-15T11:00:31.375Z,997.62
2019-03-15T11:01:31.366Z,997.65
2019-03-15T11:02:31.292Z,997.64
2019-03-15T11:03:31.306Z,997.72
2019-03-15T11:04:31.297Z,997.80
2019-03-15T11:05:31.293Z,997.77
2019-03-15T11:06:31.260Z,997.56
2019-03-15T11:07:31.282Z,997.70
2019-03-15T11:08:31.294Z,997.72
2019-03-15T11:09:31.216Z,997.62
2019-03-15T11:10:31.208Z,997.49
2019-03-15T11:11:31.201Z,997.58
2019-03-15T11:12:31.191Z,997.70
2019-03-15T11:13:31.216Z,997.67
2019-03-15T11:14:31.176Z,997.81
2019-03-15T11:15:31.173Z,997.64
2019-03-15T11:16:31.206Z,997.66
2019-03-15T11:17:31.118Z,997.72
2019-03-15T11:18:31.134Z,997.63
2019-03-15T11:19:31.157Z,997.82
2019-03-15T11:20:31.108Z,997.86
2019-03-15T11:21:31.091Z,997.86
2019-03-15T11:22:31.128Z,997.75
2019-03-15T11:23:31.216Z,997.88
2019-03-15T11:24:31.089Z,997.78
2019-03-15T11:25:31.083Z,997.77
2019-03-15T11:26:31.021Z,997.81
2019-03-15T11:27:31.025Z,997.84
2019-03-15T11:28:31.014Z,997.91
2019-03-15T11:29:30.988Z,997.96
2019-03-15T11:30:31.035Z,997.82
2019-03-15T11:31:30.989Z,998.00
2019-03-15T11:32:30.969Z,998.04
2019-03-15T11:33:30.975Z,997.90
2019-03-15T11:34:30.965Z,997.88
2019-03-15T11:35:31.440Z,997.91
2019-03-15T11:36:30.974Z,998.03
2019-03-15T11:37:30.931Z,997.91
2019-03-15T11:38:31.034Z,998.01
2019-03-15T11:39:30.882Z,997.94
2019-03-15T11:40:30.860Z,997.93
2019-03-15T11:41:30.934Z,997.95
2019-03-15T11:42:30.870Z,997.98
2019-03-15T11:43:30.905Z,997.96
2019-03-15T11:44:30.899Z,998.08
2019-03-15T11:45:30.827Z,998.21
2019-03-15T11:46:30.802Z,998.05
2019-03-15T11:47:45.997Z,997.96
2019-03-15T11:48:31.796Z,998.07
2019-03-15T11:49:30.837Z,998.05
2019-03-15T11:50:30.753Z,998.02
2019-03-15T11:51:30.787Z,998.41
2019-03-15T11:52:30.730Z,998.59
2019-03-15T11:53:30.781Z,998.24
2019-03-15T11:54:30.770Z,998.29
2019-03-15T11:55:30.696Z,998.19
2019-03-15T11:56:30.707Z,998.08
2019-03-15T11:57:30.711Z,998.53
2019-03-15T11:58:30.688Z,998.36
2019-03-15T11:59:30.671Z,998.25
2019-03-15T12:00:30.698Z,998.27
2019-03-15T12:01:30.649Z,998.57
2019-03-15T12:02:30.636Z,998.34
2019-03-15T12:03:30.612Z,998.65
2019-03-15T12:04:30.603Z,998.40
2019-03-15T12:05:30.588Z,998.38
2019-03-15T12:06:30.621Z,998.34
2019-03-15T12:07:30.577Z,998.26
2019-03-15T12:08:30.580Z,998.25
2019-03-15T12:09:30.562Z,998.33
2019-03-15T12:10:30.583Z,998.38
2019-03-15T12:11:30.550Z,998.54
2019-03-15T12:12:30.602Z,998.14
2019-03-15T12:13:30.510Z,998.37
2019-03-15T12:14:40.450Z,998.33
2019-03-15T12:15:31.495Z,998.19
2019-03-15T12:16:30.539Z,998.07
2019-03-15T12:17:30.459Z,998.17
2019-03-15T12:18:30.465Z,998.32
2019-03-15T12:19:30.442Z,998.37
2019-03-15T12:20:30.441Z,998.34
2019-03-15T12:21:30.432Z,998.41
2019-03-15T12:22:30.465Z,998.42
2019-03-15T12:23:30.398Z,998.24